Time;durP1;ratioP1;P1;durP2;ratioP2;P2;SDS_P1;SDS_P2;PMS_P1;PMS_P2;Temp;Humidity;BMP_temperature;BMP_pressure;BME280_temperature;BME280_humidity;BME280_pressure;Samples;Min_cycle;Max_cycle;Signal;HPM_P1;HPM_P2
2022/03/09 00:21:35;;;;;;;5.65;4.10;;;;;;;;;;4406629;28;20232;-66
2022/03/09 00:24:01;;;;;;;5.93;4.25;;;;;;;;;;4219200;34;20116;-66
2022/03/09 00:26:27;;;;;;;5.40;4.70;;;;;;;;;;4218854;33;20090;-67
2022/03/09 00:28:53;;;;;;;5.60;4.40;;;;;;;;;;4218716;34;20121;-65
2022/03/09 00:31:19;;;;;;;5.20;4.30;;;;;;;;;;4219336;33;20125;-61
2022/03/09 00:33:45;;;;;;;5.53;4.53;;;;;;;;;;4219447;34;20204;-66
2022/03/09 00:36:11;;;;;;;5.85;4.62;;;;;;;;;;4219162;34;20141;-66
2022/03/09 00:38:37;;;;;;;7.50;4.68;;;;;;;;;;4219301;34;20173;-67
2022/03/09 00:41:03;;;;;;;5.55;4.32;;;;;;;;;;4217028;34;20243;-66
2022/03/09 00:43:29;;;;;;;5.35;4.47;;;;;;;;;;4219343;34;20533;-67
2022/03/09 00:45:56;;;;;;;4.97;4.43;;;;;;;;;;4219495;34;20129;-67
2022/03/09 00:48:22;;;;;;;6.55;4.55;;;;;;;;;;4219280;34;20120;-66
2022/03/09 00:50:48;;;;;;;5.25;4.65;;;;;;;;;;4217864;34;20109;-67
2022/03/09 00:53:14;;;;;;;5.72;4.55;;;;;;;;;;4219504;34;20608;-67
2022/03/09 00:55:40;;;;;;;5.68;4.65;;;;;;;;;;4219293;34;20098;-67
2022/03/09 00:58:06;;;;;;;6.22;4.97;;;;;;;;;;4219188;34;20125;-66
2022/03/09 01:00:32;;;;;;;5.22;4.12;;;;;;;;;;4219299;34;20105;-67
2022/03/09 01:02:58;;;;;;;4.95;4.50;;;;;;;;;;4219022;34;20209;-67
2022/03/09 01:05:24;;;;;;;7.00;4.80;;;;;;;;;;4219139;34;20108;-67
2022/03/09 01:07:51;;;;;;;6.22;5.18;;;;;;;;;;4219004;34;20109;-67
2022/03/09 01:10:17;;;;;;;6.62;4.97;;;;;;;;;;4219245;34;20109;-67
2022/03/09 01:12:43;;;;;;;5.40;4.53;;;;;;;;;;4219025;34;20565;-67
2022/03/09 01:15:09;;;;;;;5.05;4.55;;;;;;;;;;4219128;34;20090;-67
2022/03/09 01:17:35;;;;;;;6.35;5.05;;;;;;;;;;4218604;34;20101;-65
2022/03/09 01:20:01;;;;;;;6.00;4.65;;;;;;;;;;4219098;34;20124;-67
2022/03/09 01:22:27;;;;;;;8.98;5.62;;;;;;;;;;4218616;34;20101;-67
2022/03/09 01:24:53;;;;;;;5.80;5.00;;;;;;;;;;4218977;34;20453;-66
2022/03/09 01:27:19;;;;;;;8.32;5.78;;;;;;;;;;4219015;34;20127;-66
2022/03/09 01:29:45;;;;;;;6.90;4.90;;;;;;;;;;4219021;34;20220;-67
2022/03/09 01:32:11;;;;;;;6.75;4.97;;;;;;;;;;4219141;34;20545;-67
2022/03/09 01:34:37;;;;;;;5.93;4.80;;;;;;;;;;4205978;34;20125;-66
2022/03/09 01:37:03;;;;;;;5.93;4.85;;;;;;;;;;4218758;34;20097;-67
2022/03/09 01:39:29;;;;;;;6.03;5.12;;;;;;;;;;4218736;34;20584;-66
2022/03/09 01:41:55;;;;;;;7.20;5.15;;;;;;;;;;4205448;34;20128;-67
2022/03/09 01:44:23;;;;;;;7.18;5.37;;;;;;;;;;4218724;34;20117;-67
2022/03/09 01:46:51;;;;;;;6.90;5.25;;;;;;;;;;4218643;33;20561;-67
2022/03/09 01:49:18;;;;;;;7.87;5.40;;;;;;;;;;4206093;34;20105;-67
2022/03/09 01:51:46;;;;;;;7.62;5.25;;;;;;;;;;4218794;33;20169;-67
2022/03/09 01:54:12;;;;;;;6.00;5.30;;;;;;;;;;4218500;34;20110;-66
2022/03/09 01:56:38;;;;;;;5.45;4.70;;;;;;;;;;4205524;34;20132;-65
2022/03/09 01:59:09;;;;;;;8.05;4.97;;;;;;;;;;4218876;34;20123;-66
2022/03/09 02:01:35;;;;;;;6.37;5.28;;;;;;;;;;4217864;33;20485;-67
2022/03/09 02:04:03;;;;;;;7.03;5.57;;;;;;;;;;4218522;34;20525;-67
2022/03/09 02:06:31;;;;;;;5.68;5.07;;;;;;;;;;4218580;33;20125;-67
2022/03/09 02:11:42;;;;;;;6.65;5.57;;;;;;;;;;4207499;34;20199;-66
2022/03/09 02:14:29;;;;;;;7.65;5.90;;;;;;;;;;4217833;34;20491;-65
2022/03/09 02:16:56;;;;;;;5.93;5.25;;;;;;;;;;4218234;34;20113;-65
2022/03/09 02:19:22;;;;;;;7.03;5.25;;;;;;;;;;4205561;34;20146;-66
2022/03/09 02:21:52;;;;;;;8.10;5.47;;;;;;;;;;4217529;33;20544;-67
2022/03/09 02:24:17;;;;;;;6.18;5.47;;;;;;;;;;4218191;34;20188;-67
2022/03/09 02:26:44;;;;;;;6.22;5.53;;;;;;;;;;4218584;34;20732;-67
2022/03/09 02:29:10;;;;;;;8.10;5.60;;;;;;;;;;4205509;34;20100;-67
2022/03/09 02:31:36;;;;;;;8.85;5.60;;;;;;;;;;4193082;34;20177;-67
2022/03/09 02:34:02;;;;;;;6.30;5.28;;;;;;;;;;4216925;34;20190;-68
2022/03/09 02:36:28;;;;;;;5.47;4.97;;;;;;;;;;4218469;34;20125;-68
2022/03/09 02:38:54;;;;;;;6.72;5.28;;;;;;;;;;4218416;34;20089;-67
2022/03/09 02:41:20;;;;;;;7.60;5.28;;;;;;;;;;4218695;34;20449;-67
2022/03/09 02:43:46;;;;;;;6.30;5.28;;;;;;;;;;4218526;34;20128;-67
2022/03/09 02:46:12;;;;;;;6.72;5.47;;;;;;;;;;4218445;34;20121;-68
2022/03/09 02:48:38;;;;;;;6.12;5.45;;;;;;;;;;4218296;34;20128;-68
2022/03/09 02:51:04;;;;;;;8.43;5.97;;;;;;;;;;4205362;34;20120;-68
2022/03/09 02:53:30;;;;;;;5.95;5.15;;;;;;;;;;4218537;34;20106;-67
2022/03/09 02:55:56;;;;;;;7.45;5.55;;;;;;;;;;4218651;34;20448;-68
2022/03/09 02:58:21;;;;;;;5.93;5.32;;;;;;;;;;4218240;34;20112;-67
2022/03/09 03:00:47;;;;;;;6.60;5.47;;;;;;;;;;4218308;34;20553;-68
2022/03/09 03:03:13;;;;;;;6.18;5.55;;;;;;;;;;4217501;34;20494;-67
2022/03/09 03:05:39;;;;;;;6.55;5.15;;;;;;;;;;4218150;34;20143;-67
2022/03/09 03:08:05;;;;;;;6.22;5.05;;;;;;;;;;4205371;34;20124;-67
2022/03/09 03:10:31;;;;;;;7.15;5.35;;;;;;;;;;4218525;34;20559;-67
2022/03/09 03:12:57;;;;;;;6.87;5.78;;;;;;;;;;4205095;34;20120;-67
2022/03/09 03:15:23;;;;;;;6.72;6.03;;;;;;;;;;4218254;34;20543;-67
2022/03/09 03:17:49;;;;;;;6.05;5.45;;;;;;;;;;4218052;34;20192;-68
2022/03/09 03:20:15;;;;;;;9.00;6.07;;;;;;;;;;4217229;34;20101;-68
2022/03/09 03:22:41;;;;;;;6.50;5.65;;;;;;;;;;4209911;34;20125;-66
2022/03/09 03:25:07;;;;;;;6.45;5.80;;;;;;;;;;4217917;33;20131;-68
2022/03/09 03:27:33;;;;;;;7.32;5.65;;;;;;;;;;4218273;34;20093;-68
2022/03/09 03:29:59;;;;;;;5.85;5.28;;;;;;;;;;4210783;34;20507;-68
2022/03/09 03:32:25;;;;;;;9.50;6.18;;;;;;;;;;4205782;34;20197;-68
2022/03/09 03:34:52;;;;;;;7.30;5.55;;;;;;;;;;4217545;34;20126;-67
2022/03/09 03:37:18;;;;;;;7.72;6.00;;;;;;;;;;4217620;34;20101;-66
2022/03/09 03:39:43;;;;;;;5.50;5.00;;;;;;;;;;4203152;34;20117;-71
2022/03/09 03:42:10;;;;;;;6.40;5.07;;;;;;;;;;4211021;34;20122;-69
2022/03/09 03:44:36;;;;;;;6.07;5.20;;;;;;;;;;4209879;34;20465;-71
2022/03/09 03:47:02;;;;;;;6.57;5.32;;;;;;;;;;4209983;34;20126;-70
2022/03/09 03:49:28;;;;;;;6.12;5.10;;;;;;;;;;4208584;34;20126;-69
2022/03/09 03:51:54;;;;;;;6.37;5.45;;;;;;;;;;4209869;34;20626;-69
2022/03/09 03:54:20;;;;;;;6.75;6.05;;;;;;;;;;4209834;34;20123;-67
2022/03/09 03:56:46;;;;;;;6.07;5.20;;;;;;;;;;4208886;34;20130;-70
2022/03/09 03:59:13;;;;;;;5.78;5.18;;;;;;;;;;4210366;34;20192;-70
2022/03/09 04:01:39;;;;;;;6.47;5.32;;;;;;;;;;4210526;33;20562;-68
2022/03/09 04:04:05;;;;;;;7.47;5.85;;;;;;;;;;4208880;34;20541;-67
2022/03/09 04:06:31;;;;;;;6.22;5.45;;;;;;;;;;4215247;34;20179;-68
2022/03/09 04:08:57;;;;;;;6.00;5.40;;;;;;;;;;4216197;34;20125;-67
2022/03/09 04:11:23;;;;;;;6.32;5.72;;;;;;;;;;4202286;34;20137;-64
2022/03/09 04:13:49;;;;;;;7.32;6.32;;;;;;;;;;4215569;34;20193;-66
2022/03/09 04:16:15;;;;;;;8.00;5.90;;;;;;;;;;4217953;33;20116;-66
2022/03/09 04:18:41;;;;;;;7.32;5.57;;;;;;;;;;4215464;34;20129;-67
2022/03/09 04:21:07;;;;;;;7.45;6.05;;;;;;;;;;4215735;33;20118;-69
2022/03/09 04:23:33;;;;;;;7.05;6.10;;;;;;;;;;4204063;34;20105;-66
2022/03/09 04:26:00;;;;;;;7.28;6.22;;;;;;;;;;4217702;34;20117;-66
2022/03/09 04:28:27;;;;;;;6.85;6.10;;;;;;;;;;4203439;34;20130;-66
2022/03/09 04:30:53;;;;;;;7.60;6.62;;;;;;;;;;4216314;33;20124;-66
2022/03/09 04:33:19;;;;;;;7.28;6.35;;;;;;;;;;4211285;34;20212;-66
2022/03/09 04:35:45;;;;;;;9.05;6.37;;;;;;;;;;4218289;33;20110;-64
2022/03/09 04:38:11;;;;;;;6.82;5.57;;;;;;;;;;4217908;34;20219;-64
2022/03/09 04:40:38;;;;;;;6.87;6.10;;;;;;;;;;4218725;33;20142;-65
2022/03/09 04:43:04;;;;;;;7.05;5.90;;;;;;;;;;4218568;34;20089;-64
2022/03/09 04:45:30;;;;;;;7.62;6.10;;;;;;;;;;4218660;34;20544;-64
2022/03/09 04:47:56;;;;;;;19.98;18.02;;;;;;;;;;4219385;34;20118;-65
2022/03/09 04:50:22;;;;;;;15.07;13.57;;;;;;;;;;4219443;34;20105;-65
2022/03/09 04:52:48;;;;;;;7.60;6.80;;;;;;;;;;4219445;34;20438;-69
2022/03/09 04:55:14;;;;;;;8.57;6.57;;;;;;;;;;4219152;34;20124;-67
2022/03/09 04:57:40;;;;;;;6.82;5.78;;;;;;;;;;4210265;34;20120;-66
2022/03/09 05:00:07;;;;;;;7.50;5.78;;;;;;;;;;4218503;33;20133;-65
2022/03/09 05:02:33;;;;;;;7.03;5.97;;;;;;;;;;4218897;34;20089;-65
2022/03/09 05:04:59;;;;;;;7.43;6.30;;;;;;;;;;4219083;34;20121;-66
2022/03/09 05:07:25;;;;;;;6.82;6.12;;;;;;;;;;4218427;34;20200;-65
2022/03/09 05:09:51;;;;;;;6.93;6.22;;;;;;;;;;4219124;34;20466;-66
2022/03/09 05:12:17;;;;;;;7.55;6.12;;;;;;;;;;4219305;34;20123;-66
2022/03/09 05:14:43;;;;;;;6.65;5.80;;;;;;;;;;4205916;34;20117;-66
2022/03/09 05:17:09;;;;;;;7.55;6.40;;;;;;;;;;4218911;34;20093;-67
2022/03/09 05:19:35;;;;;;;8.45;6.60;;;;;;;;;;4218636;34;21331;-66
2022/03/09 05:22:01;;;;;;;6.93;6.22;;;;;;;;;;4217967;34;20545;-66
2022/03/09 05:24:27;;;;;;;7.75;6.60;;;;;;;;;;4218318;34;20120;-66
2022/03/09 05:26:53;;;;;;;9.55;5.97;;;;;;;;;;4203780;34;20488;-66
2022/03/09 05:29:20;;;;;;;7.37;6.50;;;;;;;;;;4204981;34;20656;-66
2022/03/09 05:31:46;;;;;;;7.60;6.60;;;;;;;;;;4217809;34;20228;-66
2022/03/09 05:34:13;;;;;;;8.38;6.37;;;;;;;;;;4217975;34;20085;-67
2022/03/09 05:36:40;;;;;;;6.97;6.18;;;;;;;;;;4218610;34;20542;-67
2022/03/09 05:39:06;;;;;;;7.28;5.95;;;;;;;;;;4219052;34;20181;-66
2022/03/09 05:41:32;;;;;;;9.52;6.68;;;;;;;;;;4218520;34;20113;-66
2022/03/09 05:43:59;;;;;;;7.32;6.30;;;;;;;;;;4205776;34;20116;-66
2022/03/09 05:46:25;;;;;;;7.95;6.57;;;;;;;;;;4218694;34;20098;-63
2022/03/09 05:48:51;;;;;;;7.62;6.50;;;;;;;;;;4217424;34;20108;-63
2022/03/09 05:51:17;;;;;;;7.05;6.35;;;;;;;;;;4218157;34;20537;-63
2022/03/09 05:53:43;;;;;;;7.78;6.18;;;;;;;;;;4218426;34;20457;-63
2022/03/09 05:56:09;;;;;;;7.28;6.15;;;;;;;;;;4218917;34;20104;-62
2022/03/09 05:58:35;;;;;;;8.88;6.87;;;;;;;;;;4218105;34;20125;-61
2022/03/09 06:01:01;;;;;;;7.95;6.47;;;;;;;;;;4217473;33;20132;-63
2022/03/09 06:03:27;;;;;;;7.35;6.65;;;;;;;;;;4218406;34;20105;-62
2022/03/09 06:05:53;;;;;;;8.52;7.40;;;;;;;;;;4218633;33;20121;-61
2022/03/09 06:08:19;;;;;;;8.57;7.10;;;;;;;;;;4205266;34;20109;-63
2022/03/09 06:10:45;;;;;;;8.55;6.68;;;;;;;;;;4218201;34;20116;-60
2022/03/09 06:13:11;;;;;;;7.40;6.70;;;;;;;;;;4218076;34;20212;-61
2022/03/09 06:15:37;;;;;;;6.87;6.18;;;;;;;;;;4218435;34;20525;-61
2022/03/09 06:18:03;;;;;;;6.87;6.22;;;;;;;;;;4218502;34;20188;-60
2022/03/09 06:20:29;;;;;;;7.50;6.70;;;;;;;;;;4216664;34;20140;-62
2022/03/09 06:22:55;;;;;;;6.90;6.20;;;;;;;;;;4217491;34;20514;-61
2022/03/09 06:25:21;;;;;;;7.40;6.18;;;;;;;;;;4217742;34;20137;-61
2022/03/09 06:27:51;;;;;;;6.82;5.75;;;;;;;;;;4218519;34;20094;-61
2022/03/09 06:30:17;;;;;;;7.18;6.37;;;;;;;;;;4218333;33;20591;-60
2022/03/09 06:32:45;;;;;;;6.80;6.10;;;;;;;;;;4218591;34;20097;-62
2022/03/09 06:35:11;;;;;;;7.30;6.00;;;;;;;;;;4217682;33;20117;-63
2022/03/09 06:37:37;;;;;;;6.87;6.25;;;;;;;;;;4217869;34;20124;-61
2022/03/09 06:40:04;;;;;;;7.40;5.75;;;;;;;;;;4218068;33;20200;-61
2022/03/09 06:42:30;;;;;;;7.25;6.50;;;;;;;;;;4218488;34;20081;-60
2022/03/09 06:44:57;;;;;;;7.05;5.78;;;;;;;;;;4205408;33;20453;-59
2022/03/09 06:47:23;;;;;;;6.85;6.15;;;;;;;;;;4218067;34;20177;-61
2022/03/09 06:49:50;;;;;;;7.70;6.07;;;;;;;;;;4218379;34;20216;-62
2022/03/09 06:52:16;;;;;;;7.45;6.65;;;;;;;;;;4205164;34;20136;-61
2022/03/09 06:54:42;;;;;;;6.87;6.18;;;;;;;;;;4218114;34;20144;-62
2022/03/09 06:57:08;;;;;;;8.15;6.05;;;;;;;;;;4218325;34;20122;-61
2022/03/09 06:59:34;;;;;;;6.32;5.68;;;;;;;;;;4218062;34;20687;-62
2022/03/09 07:02:00;;;;;;;6.93;6.03;;;;;;;;;;4217893;34;20480;-62
2022/03/09 07:04:26;;;;;;;6.87;5.55;;;;;;;;;;4218025;34;20548;-62
2022/03/09 07:06:52;;;;;;;6.90;5.70;;;;;;;;;;4217943;34;20113;-62
2022/03/09 07:09:18;;;;;;;6.55;5.85;;;;;;;;;;4217336;34;20104;-62
2022/03/09 07:11:47;;;;;;;6.53;5.93;;;;;;;;;;4217438;34;20204;-62
2022/03/09 07:14:13;;;;;;;6.32;5.72;;;;;;;;;;4217766;34;20125;-60
2022/03/09 07:16:39;;;;;;;8.20;6.47;;;;;;;;;;4217848;34;20117;-62
2022/03/09 07:19:05;;;;;;;5.82;5.32;;;;;;;;;;4217641;34;20212;-63
2022/03/09 07:21:31;;;;;;;5.85;5.10;;;;;;;;;;4216671;34;20102;-63
2022/03/09 07:23:57;;;;;;;5.65;4.82;;;;;;;;;;4217440;34;20439;-62
2022/03/09 07:26:23;;;;;;;6.00;5.07;;;;;;;;;;4217927;33;20104;-62
2022/03/09 07:28:49;;;;;;;6.25;5.22;;;;;;;;;;4217667;34;20510;-62
2022/03/09 07:31:15;;;;;;;6.22;4.97;;;;;;;;;;4217684;33;20125;-63
2022/03/09 07:33:41;;;;;;;5.80;5.20;;;;;;;;;;4217542;34;20135;-61
2022/03/09 07:36:07;;;;;;;6.35;5.03;;;;;;;;;;4217791;33;20129;-62
2022/03/09 07:38:33;;;;;;;6.85;5.10;;;;;;;;;;4217385;34;20125;-62
2022/03/09 07:40:59;;;;;;;5.25;4.75;;;;;;;;;;4203593;34;20105;-63
2022/03/09 07:43:25;;;;;;;5.68;5.10;;;;;;;;;;4216777;34;20152;-62
2022/03/09 07:45:51;;;;;;;5.75;5.05;;;;;;;;;;4216069;34;20109;-63
2022/03/09 07:48:17;;;;;;;5.43;4.75;;;;;;;;;;4217264;34;20102;-62
2022/03/09 07:50:43;;;;;;;5.60;5.10;;;;;;;;;;4219104;33;20105;-62
2022/03/09 07:53:09;;;;;;;7.50;6.05;;;;;;;;;;4219883;34;20096;-63
2022/03/09 07:55:36;;;;;;;5.97;4.90;;;;;;;;;;4220024;34;20116;-63
2022/03/09 07:58:02;;;;;;;5.55;5.03;;;;;;;;;;4207208;34;20116;-63
2022/03/09 08:00:28;;;;;;;5.37;4.87;;;;;;;;;;4219803;34;20124;-63
2022/03/09 08:02:54;;;;;;;6.20;5.37;;;;;;;;;;4219846;34;20098;-62
2022/03/09 08:05:21;;;;;;;6.20;5.60;;;;;;;;;;4219481;34;20133;-62
2022/03/09 08:07:47;;;;;;;6.22;5.62;;;;;;;;;;4206703;34;20163;-63
2022/03/09 08:10:13;;;;;;;6.72;5.37;;;;;;;;;;4219661;34;20100;-61
2022/03/09 08:12:39;;;;;;;6.12;5.53;;;;;;;;;;4206583;34;20132;-64
2022/03/09 08:15:06;;;;;;;7.45;6.10;;;;;;;;;;4206131;34;20140;-62
2022/03/09 08:17:32;;;;;;;6.53;5.78;;;;;;;;;;4194924;34;20105;-68
2022/03/09 08:19:58;;;;;;;6.35;5.62;;;;;;;;;;4219420;34;20193;-64
2022/03/09 08:22:24;;;;;;;7.57;6.45;;;;;;;;;;4219302;34;20110;-64
2022/03/09 08:24:50;;;;;;;6.72;5.87;;;;;;;;;;4206361;33;20133;-64
2022/03/09 08:27:16;;;;;;;7.75;5.28;;;;;;;;;;4206757;34;20473;-64
2022/03/09 08:29:43;;;;;;;5.90;5.12;;;;;;;;;;4219366;34;20143;-64
2022/03/09 08:32:09;;;;;;;6.00;5.32;;;;;;;;;;4219338;33;20117;-64
2022/03/09 08:34:35;;;;;;;5.55;5.03;;;;;;;;;;4219384;34;20131;-65
2022/03/09 08:37:01;;;;;;;6.45;5.00;;;;;;;;;;4219515;33;20512;-65
2022/03/09 08:39:27;;;;;;;5.60;4.93;;;;;;;;;;4219487;34;20133;-64
2022/03/09 08:41:53;;;;;;;6.97;5.72;;;;;;;;;;4219165;33;20121;-64
2022/03/09 08:44:20;;;;;;;6.95;5.32;;;;;;;;;;4218955;34;20129;-64
2022/03/09 08:46:46;;;;;;;7.05;5.45;;;;;;;;;;4218051;33;20120;-64
2022/03/09 08:49:12;;;;;;;5.93;5.18;;;;;;;;;;4219260;34;20114;-65
2022/03/09 08:51:38;;;;;;;5.12;4.60;;;;;;;;;;4206136;34;20109;-65
2022/03/09 08:54:04;;;;;;;7.78;4.80;;;;;;;;;;4219436;34;20533;-67
2022/03/09 08:56:30;;;;;;;5.20;4.70;;;;;;;;;;4206474;34;20127;-66
2022/03/09 08:58:56;;;;;;;5.40;4.43;;;;;;;;;;4206119;34;20121;-66
2022/03/09 09:01:23;;;;;;;5.32;4.82;;;;;;;;;;4218787;34;20232;-65
2022/03/09 09:03:49;;;;;;;5.20;4.68;;;;;;;;;;4219028;34;20477;-66
2022/03/09 09:06:15;;;;;;;7.68;5.35;;;;;;;;;;4219245;34;20147;-65
2022/03/09 09:08:41;;;;;;;5.50;4.93;;;;;;;;;;4219007;34;20204;-65
2022/03/09 09:11:07;;;;;;;7.05;4.80;;;;;;;;;;4206273;34;20541;-65
2022/03/09 09:13:33;;;;;;;6.65;5.00;;;;;;;;;;4206188;34;20129;-64
2022/03/09 09:15:59;;;;;;;6.35;5.70;;;;;;;;;;4219355;34;20113;-65
2022/03/09 09:18:25;;;;;;;8.00;6.68;;;;;;;;;;4206073;34;20534;-65
2022/03/09 09:20:53;;;;;;;10.27;7.00;;;;;;;;;;4206741;34;20116;-64
2022/03/09 09:23:19;;;;;;;6.62;5.57;;;;;;;;;;4218755;34;20498;-65
2022/03/09 09:25:46;;;;;;;10.10;8.07;;;;;;;;;;4205989;34;20522;-67
2022/03/09 09:28:12;;;;;;;9.30;7.22;;;;;;;;;;4218914;34;20592;-64
2022/03/09 09:30:39;;;;;;;13.10;10.00;;;;;;;;;;4218794;33;20126;-64
2022/03/09 09:33:05;;;;;;;11.27;8.60;;;;;;;;;;4217155;34;20117;-63
2022/03/09 09:35:31;;;;;;;10.23;6.25;;;;;;;;;;4205034;34;20137;-63
2022/03/09 09:38:06;;;;;;;7.97;7.10;;;;;;;;;;4218994;34;20123;-65
2022/03/09 09:40:40;;;;;;;6.10;5.47;;;;;;;;;;4205055;34;20520;-61
2022/03/09 09:43:09;;;;;;;6.53;5.18;;;;;;;;;;4204953;34;20101;-64
2022/03/09 09:45:35;;;;;;;6.65;5.45;;;;;;;;;;4204850;34;20176;-64
2022/03/09 09:48:03;;;;;;;5.97;5.20;;;;;;;;;;4203713;34;20101;-64
2022/03/09 09:50:30;;;;;;;6.82;5.53;;;;;;;;;;4204966;34;20124;-63
2022/03/09 09:52:56;;;;;;;5.95;5.35;;;;;;;;;;4204906;34;20117;-64
2022/03/09 09:55:26;;;;;;;6.00;5.20;;;;;;;;;;4204908;34;20479;-65
2022/03/09 09:57:52;;;;;;;5.78;4.95;;;;;;;;;;4204892;34;20112;-64
2022/03/09 10:00:18;;;;;;;6.90;5.70;;;;;;;;;;4208805;34;20135;-63
2022/03/09 10:02:45;;;;;;;6.75;5.55;;;;;;;;;;4218402;34;20206;-62
2022/03/09 10:05:13;;;;;;;6.32;5.10;;;;;;;;;;4218499;34;20129;-63
2022/03/09 10:08:04;;;;;;;6.05;5.40;;;;;;;;;;4218531;34;20108;-63
2022/03/09 10:10:38;;;;;;;6.70;5.90;;;;;;;;;;4218504;34;20093;-68
2022/03/09 10:13:13;;;;;;;6.25;5.65;;;;;;;;;;4205107;34;20113;-67
2022/03/09 10:15:40;;;;;;;7.32;4.95;;;;;;;;;;4213311;34;20232;-67
2022/03/09 10:18:16;;;;;;;7.25;5.93;;;;;;;;;;4202952;34;20128;-67
2022/03/09 10:20:43;;;;;;;7.18;5.28;;;;;;;;;;4214178;34;20102;-67
2022/03/09 10:23:09;;;;;;;6.50;5.30;;;;;;;;;;4204479;34;20108;-65
2022/03/09 10:25:35;;;;;;;6.22;4.90;;;;;;;;;;4205322;34;20124;-67
2022/03/09 10:28:08;;;;;;;5.80;5.20;;;;;;;;;;4216519;34;20109;-67
2022/03/09 10:30:38;;;;;;;5.53;4.72;;;;;;;;;;4215390;33;20136;-67
2022/03/09 10:33:14;;;;;;;7.85;5.32;;;;;;;;;;4202079;34;20118;-70
2022/03/09 10:35:41;;;;;;;;;;;;;;;;;;4202601;34;20148;-68
2022/03/09 10:38:30;;;;;;;5.70;4.97;;;;;;;;;;4190029;34;20413;-68
2022/03/09 10:41:00;;;;;;;5.68;5.03;;;;;;;;;;4202344;34;20106;-68
2022/03/09 10:43:29;;;;;;;7.18;4.72;;;;;;;;;;4212840;34;20121;-69
2022/03/09 10:46:01;;;;;;;6.37;4.78;;;;;;;;;;4217401;33;20113;-68
2022/03/09 10:48:50;;;;;;;6.00;5.22;;;;;;;;;;4218254;34;20454;-67
2022/03/09 10:51:36;;;;;;;6.72;4.68;;;;;;;;;;4218079;33;20636;-68
2022/03/09 10:54:06;;;;;;;6.25;4.68;;;;;;;;;;4194019;34;20124;-67
2022/03/09 10:56:33;;;;;;;5.60;4.60;;;;;;;;;;4218150;34;20120;-68
2022/03/09 10:59:10;;;;;;;6.03;4.82;;;;;;;;;;4217097;34;20089;-67
2022/03/09 11:01:36;;;;;;;5.75;4.75;;;;;;;;;;4216415;34;20535;-70
2022/03/09 11:04:17;;;;;;;5.55;4.68;;;;;;;;;;4205265;34;20115;-68
2022/03/09 11:06:47;;;;;;;6.72;5.30;;;;;;;;;;4204927;34;20098;-67
2022/03/09 11:09:17;;;;;;;6.25;5.28;;;;;;;;;;4204391;34;20115;-68
2022/03/09 11:11:45;;;;;;;5.95;5.25;;;;;;;;;;4216445;33;20112;-68
2022/03/09 11:14:13;;;;;;;5.93;5.00;;;;;;;;;;4204721;34;20097;-68
2022/03/09 11:16:41;;;;;;;5.03;4.62;;;;;;;;;;4217968;34;20101;-69
2022/03/09 11:19:08;;;;;;;9.15;5.87;;;;;;;;;;4205008;34;20117;-68
2022/03/09 11:21:35;;;;;;;6.65;4.95;;;;;;;;;;4204849;34;20637;-69
2022/03/09 11:24:07;;;;;;;5.93;5.22;;;;;;;;;;4205133;34;20185;-69
2022/03/09 11:26:36;;;;;;;6.53;5.22;;;;;;;;;;4220427;34;20109;-68
2022/03/09 11:29:07;;;;;;;5.72;5.12;;;;;;;;;;4219863;34;20120;-68
2022/03/09 11:31:43;;;;;;;7.43;5.22;;;;;;;;;;4219974;33;20097;-68
2022/03/09 11:34:34;;;;;;;6.57;5.20;;;;;;;;;;4207195;34;20105;-68
2022/03/09 11:37:11;;;;;;;6.57;5.40;;;;;;;;;;4219825;33;20204;-68
2022/03/09 11:39:39;;;;;;;6.90;4.82;;;;;;;;;;4206206;34;20136;-67
2022/03/09 11:42:20;;;;;;;5.65;5.07;;;;;;;;;;4216904;34;20098;-67
2022/03/09 11:44:52;;;;;;;6.57;5.05;;;;;;;;;;4219663;33;20176;-67
2022/03/09 11:47:19;;;;;;;6.87;5.20;;;;;;;;;;4219262;34;20097;-68
2022/03/09 11:49:52;;;;;;;6.18;5.28;;;;;;;;;;4195350;34;20193;-68
2022/03/09 11:52:19;;;;;;;6.50;5.12;;;;;;;;;;4219748;34;20108;-68
2022/03/09 11:54:55;;;;;;;6.60;5.30;;;;;;;;;;4219652;34;20604;-68
2022/03/09 11:57:23;;;;;;;7.35;6.10;;;;;;;;;;4219691;34;20094;-67
2022/03/09 12:00:08;;;;;;;8.15;5.07;;;;;;;;;;4218809;33;20113;-66
2022/03/09 12:02:39;;;;;;;7.28;5.05;;;;;;;;;;4206826;34;20120;-68
2022/03/09 12:05:06;;;;;;;5.50;4.95;;;;;;;;;;4219664;33;20513;-68
2022/03/09 12:07:33;;;;;;;9.05;4.90;;;;;;;;;;4219593;34;20501;-68
2022/03/09 12:10:06;;;;;;;6.53;5.12;;;;;;;;;;4206407;33;20120;-68
2022/03/09 12:12:34;;;;;;;5.10;4.60;;;;;;;;;;4219504;34;20089;-68
2022/03/09 12:15:01;;;;;;;6.25;5.03;;;;;;;;;;4219571;33;20450;-69
2022/03/09 12:17:30;;;;;;;5.65;4.90;;;;;;;;;;4206538;34;20102;-68
2022/03/09 12:20:21;;;;;;;6.10;5.15;;;;;;;;;;4195240;33;20132;-66
2022/03/09 12:22:56;;;;;;;5.15;4.65;;;;;;;;;;4219439;34;20100;-67
2022/03/09 12:25:44;;;;;;;6.75;5.35;;;;;;;;;;4219489;33;20117;-67
2022/03/09 12:28:27;;;;;;;5.47;4.85;;;;;;;;;;4206674;34;20102;-67
2022/03/09 12:31:07;;;;;;;7.62;5.15;;;;;;;;;;4219481;33;20569;-67
2022/03/09 12:33:39;;;;;;;6.28;5.45;;;;;;;;;;4206546;34;20510;-67
2022/03/09 12:36:12;;;;;;;5.62;4.87;;;;;;;;;;4205689;34;20129;-67
2022/03/09 12:38:41;;;;;;;5.70;5.10;;;;;;;;;;4219732;34;20085;-67
2022/03/09 12:41:29;;;;;;;5.60;5.07;;;;;;;;;;4206747;34;20544;-67
2022/03/09 12:44:06;;;;;;;7.45;5.37;;;;;;;;;;4219270;34;20604;-66
2022/03/09 12:46:33;;;;;;;7.32;5.43;;;;;;;;;;4206603;34;20090;-67
2022/03/09 12:49:10;;;;;;;7.25;5.75;;;;;;;;;;4219185;34;20208;-66
2022/03/09 12:51:37;;;;;;;9.32;6.03;;;;;;;;;;4219293;33;20474;-67
2022/03/09 12:54:03;;;;;;;7.40;6.00;;;;;;;;;;4206016;34;20522;-69
2022/03/09 12:56:30;;;;;;;7.75;5.70;;;;;;;;;;4219420;33;20129;-68
2022/03/09 12:59:11;;;;;;;6.20;5.55;;;;;;;;;;4206257;34;20113;-67
2022/03/09 13:01:37;;;;;;;6.85;6.12;;;;;;;;;;4219031;33;20284;-66
2022/03/09 13:04:04;;;;;;;6.62;5.93;;;;;;;;;;4218305;34;20603;-66
2022/03/09 13:06:36;;;;;;;6.97;5.68;;;;;;;;;;4216050;33;20514;-67
2022/03/09 13:09:19;;;;;;;7.80;5.57;;;;;;;;;;4215878;34;20477;-64
2022/03/09 13:11:44;;;;;;;6.20;5.25;;;;;;;;;;4219054;33;20121;-65
2022/03/09 13:14:18;;;;;;;7.30;5.40;;;;;;;;;;4219167;34;20538;-66
2022/03/09 13:16:44;;;;;;;7.15;5.32;;;;;;;;;;4219019;33;20100;-65
2022/03/09 13:19:11;;;;;;;7.30;5.55;;;;;;;;;;4205985;34;20140;-63
2022/03/09 13:21:38;;;;;;;5.90;5.30;;;;;;;;;;4219016;33;20125;-63
2022/03/09 13:24:06;;;;;;;7.15;5.22;;;;;;;;;;4206030;34;20153;-63
2022/03/09 13:26:43;;;;;;;8.63;6.05;;;;;;;;;;4219003;33;20125;-63
2022/03/09 13:29:14;;;;;;;6.72;6.00;;;;;;;;;;4218991;34;20433;-64
2022/03/09 13:31:40;;;;;;;9.77;5.45;;;;;;;;;;4219117;33;20109;-64
2022/03/09 13:34:34;;;;;;;8.07;5.80;;;;;;;;;;4218845;34;20133;-63
2022/03/09 13:37:03;;;;;;;6.05;5.45;;;;;;;;;;4183138;34;20534;-63
2022/03/09 13:39:42;;;;;;;7.70;5.50;;;;;;;;;;4218973;34;20544;-63
2022/03/09 13:42:14;;;;;;;6.93;6.22;;;;;;;;;;4205725;34;20125;-64
2022/03/09 13:44:40;;;;;;;6.43;5.28;;;;;;;;;;4205766;34;20081;-64
2022/03/09 13:47:09;;;;;;;6.50;5.15;;;;;;;;;;4204655;33;20213;-64
2022/03/09 13:49:49;;;;;;;7.03;5.40;;;;;;;;;;4218878;34;20121;-63
2022/03/09 13:52:35;;;;;;;5.65;4.87;;;;;;;;;;4194598;34;20430;-65
2022/03/09 13:55:03;;;;;;;7.25;5.30;;;;;;;;;;4205949;33;20196;-63
2022/03/09 13:57:38;;;;;;;6.72;5.32;;;;;;;;;;4194355;34;20201;-64
2022/03/09 14:00:30;;;;;;;6.43;5.55;;;;;;;;;;4218666;33;20105;-64
2022/03/09 14:03:06;;;;;;;7.68;5.50;;;;;;;;;;4218464;34;20108;-64
2022/03/09 14:05:32;;;;;;;6.95;5.28;;;;;;;;;;4218818;33;20188;-63
2022/03/09 14:07:59;;;;;;;6.32;5.62;;;;;;;;;;4218560;34;20569;-64
2022/03/09 14:10:27;;;;;;;7.03;5.57;;;;;;;;;;4205660;34;20497;-64
2022/03/09 14:12:55;;;;;;;7.03;5.22;;;;;;;;;;4218500;34;20101;-64
2022/03/09 14:15:23;;;;;;;7.55;5.00;;;;;;;;;;4205567;34;20097;-62
2022/03/09 14:17:49;;;;;;;5.95;5.30;;;;;;;;;;4205248;34;20212;-65
2022/03/09 14:20:15;;;;;;;6.62;4.82;;;;;;;;;;4218620;33;20097;-64
2022/03/09 14:22:46;;;;;;;5.65;4.93;;;;;;;;;;4205605;34;20109;-65
2022/03/09 14:25:16;;;;;;;5.80;5.12;;;;;;;;;;4218506;33;20129;-60
2022/03/09 14:27:42;;;;;;;6.25;5.20;;;;;;;;;;4218589;34;20213;-62
2022/03/09 14:30:11;;;;;;;5.87;4.97;;;;;;;;;;4205528;33;20121;-62
2022/03/09 14:32:37;;;;;;;6.20;5.00;;;;;;;;;;4205468;34;20109;-61
2022/03/09 14:35:04;;;;;;;5.47;4.85;;;;;;;;;;4218163;33;20136;-60
2022/03/09 14:37:30;;;;;;;5.28;4.53;;;;;;;;;;4218140;34;20483;-61
2022/03/09 14:39:57;;;;;;;8.65;5.35;;;;;;;;;;4218466;33;20641;-61
2022/03/09 14:42:23;;;;;;;6.87;5.70;;;;;;;;;;4218119;34;20124;-61
2022/03/09 14:44:49;;;;;;;6.47;5.00;;;;;;;;;;4203036;34;20112;-61
2022/03/09 14:47:15;;;;;;;5.80;4.72;;;;;;;;;;4217935;34;20105;-61
2022/03/09 14:49:42;;;;;;;10.07;5.05;;;;;;;;;;4205258;34;20125;-61
2022/03/09 14:52:09;;;;;;;6.35;5.22;;;;;;;;;;4218102;33;20177;-60
2022/03/09 14:54:35;;;;;;;7.05;5.40;;;;;;;;;;4218131;34;20485;-61
2022/03/09 14:57:01;;;;;;;6.22;5.28;;;;;;;;;;4218074;33;20108;-61
2022/03/09 14:59:27;;;;;;;7.85;5.57;;;;;;;;;;4217252;34;20518;-61
2022/03/09 15:01:54;;;;;;;7.93;5.78;;;;;;;;;;4218015;33;20082;-61
2022/03/09 15:04:21;;;;;;;5.95;5.12;;;;;;;;;;4217991;34;20116;-61
2022/03/09 15:06:47;;;;;;;6.82;5.95;;;;;;;;;;4205092;34;20208;-61
2022/03/09 15:09:14;;;;;;;7.12;5.55;;;;;;;;;;4217967;34;20109;-61
2022/03/09 15:11:40;;;;;;;6.35;5.15;;;;;;;;;;4217432;33;20576;-60